Time;durP1;ratioP1;P1;durP2;ratioP2;P2;SDS_P1;SDS_P2;PMS_P1;PMS_P2;Temp;Humidity;BMP_temperature;BMP_pressure;BME280_temperature;BME280_humidity;BME280_pressure;Samples;Min_cycle;Max_cycle;Signal;HPM_P1;HPM_P2
2021/05/04 00:01:37;;;;;;;11.23;2.45;;;1.00;99.90;;;;;;5074672;28;20715;-72
2021/05/04 00:04:03;;;;;;;15.18;2.45;;;0.90;99.90;;;;;;5074010;28;20231;-72
2021/05/04 00:06:28;;;;;;;3.85;2.10;;;0.90;99.90;;;;;;5071995;28;20208;-72
2021/05/04 00:08:54;;;;;;;7.97;2.38;;;0.80;99.90;;;;;;5077425;28;20203;-72
2021/05/04 00:11:20;;;;;;;13.25;2.85;;;0.80;99.90;;;;;;5062079;28;20196;-72
2021/05/04 00:13:46;;;;;;;6.72;2.50;;;0.80;99.90;;;;;;5077854;28;20196;-72
2021/05/04 00:16:11;;;;;;;4.15;2.30;;;0.80;99.90;;;;;;5076259;28;20197;-72
2021/05/04 00:18:37;;;;;;;6.32;2.22;;;0.70;99.90;;;;;;5080438;28;20219;-72
2021/05/04 00:21:03;;;;;;;14.45;2.92;;;0.70;99.90;;;;;;5083555;28;20335;-72
2021/05/04 00:23:29;;;;;;;6.85;2.78;;;0.70;99.90;;;;;;5081710;28;20211;-72
2021/05/04 00:25:54;;;;;;;7.07;2.20;;;0.70;99.90;;;;;;5080956;28;20208;-72
2021/05/04 00:28:20;;;;;;;7.13;2.35;;;0.70;99.90;;;;;;5080612;28;20210;-72
2021/05/04 00:30:46;;;;;;;5.60;2.17;;;0.60;99.90;;;;;;5081419;28;20204;-72
2021/05/04 00:33:11;;;;;;;7.72;2.30;;;0.60;99.90;;;;;;5079600;28;20188;-72
2021/05/04 00:35:37;;;;;;;13.15;2.58;;;0.60;99.90;;;;;;5079499;28;20200;-72
2021/05/04 00:38:03;;;;;;;6.55;2.10;;;0.60;99.90;;;;;;5078262;28;20237;-72
2021/05/04 00:40:29;;;;;;;6.75;2.25;;;0.60;99.90;;;;;;5077769;28;20208;-72
2021/05/04 00:42:54;;;;;;;7.78;2.53;;;0.60;99.90;;;;;;5080900;28;20406;-72
2021/05/04 00:45:20;;;;;;;7.78;2.30;;;0.50;99.90;;;;;;5059331;28;20694;-72
2021/05/04 00:47:46;;;;;;;4.65;2.03;;;0.50;99.90;;;;;;5081430;28;20196;-72
2021/05/04 00:50:12;;;;;;;3.22;2.20;;;0.50;99.90;;;;;;5063718;28;20201;-72
2021/05/04 00:52:38;;;;;;;4.38;2.30;;;0.50;99.90;;;;;;5063613;28;20196;-72
2021/05/04 00:55:05;;;;;;;3.80;1.95;;;0.40;99.90;;;;;;5079770;28;20221;-72
2021/05/04 00:57:32;;;;;;;6.57;2.10;;;0.50;99.90;;;;;;5076968;28;20616;-72
2021/05/04 01:00:05;;;;;;;4.93;2.17;;;0.40;99.90;;;;;;5076060;28;20197;-72
2021/05/04 01:02:32;;;;;;;6.32;2.20;;;0.50;99.90;;;;;;5075957;28;20248;-72
2021/05/04 01:04:59;;;;;;;6.25;2.13;;;0.40;99.90;;;;;;5078208;28;20323;-72
2021/05/04 01:07:28;;;;;;;10.27;2.30;;;0.40;99.90;;;;;;5081866;28;20214;-72
2021/05/04 01:09:54;;;;;;;4.53;2.28;;;0.30;99.90;;;;;;5080362;28;20200;-73
2021/05/04 01:12:21;;;;;;;6.47;2.03;;;0.30;99.90;;;;;;5078224;28;20322;-72
2021/05/04 01:14:48;;;;;;;10.27;2.30;;;0.20;99.90;;;;;;5082783;28;20232;-72
2021/05/04 01:17:14;;;;;;;12.15;2.40;;;0.20;99.90;;;;;;5082807;28;20666;-72
2021/05/04 01:19:40;;;;;;;3.78;1.98;;;0.10;99.90;;;;;;5060274;28;21172;-72
2021/05/04 01:22:06;;;;;;;6.95;2.13;;;0.10;99.90;;;;;;5061467;28;20219;-72
2021/05/04 01:24:32;;;;;;;8.35;2.17;;;0.00;99.90;;;;;;5078304;28;20752;-72
2021/05/04 01:26:58;;;;;;;7.15;2.15;;;0.10;99.90;;;;;;5061619;28;20223;-72
2021/05/04 01:29:25;;;;;;;4.88;2.17;;;0.00;99.90;;;;;;5056408;28;20203;-72
2021/05/04 01:31:52;;;;;;;6.78;2.17;;;0.00;99.90;;;;;;5079478;28;20196;-72
2021/05/04 01:34:18;;;;;;;7.78;2.13;;;0.10;99.90;;;;;;5076125;28;20200;-72
2021/05/04 01:36:44;;;;;;;11.27;2.40;;;0.10;99.90;;;;;;5078786;28;20736;-71
2021/05/04 01:39:11;;;;;;;3.97;2.28;;;0.10;99.90;;;;;;5066162;28;20284;-71
2021/05/04 01:41:37;;;;;;;8.88;2.28;;;0.00;99.90;;;;;;5078277;28;20280;-71
2021/05/04 01:44:05;;;;;;;10.77;2.70;;;0.10;99.90;;;;;;5076962;28;20219;-71
2021/05/04 01:46:34;;;;;;;13.10;3.13;;;0.10;99.90;;;;;;5076995;28;20222;-71
2021/05/04 01:49:04;;;;;;;10.38;2.70;;;0.20;99.90;;;;;;5065025;28;20283;-71
2021/05/04 01:51:31;;;;;;;13.13;2.85;;;0.40;99.90;;;;;;5079110;28;20252;-71
2021/05/04 01:53:57;;;;;;;8.73;2.90;;;0.70;99.90;;;;;;5075598;28;20291;-71
2021/05/04 01:56:24;;;;;;;7.65;2.90;;;0.90;99.90;;;;;;5076197;28;20211;-71
2021/05/04 01:58:50;;;;;;;11.77;3.28;;;1.10;99.90;;;;;;5073844;28;20208;-71
2021/05/04 02:01:16;;;;;;;9.63;3.10;;;1.30;99.90;;;;;;5056160;28;20207;-73
2021/05/04 02:03:43;;;;;;;10.18;3.35;;;1.40;99.90;;;;;;5078277;28;20269;-71
2021/05/04 02:06:08;;;;;;;12.23;3.58;;;1.50;99.90;;;;;;5063938;28;20231;-71
2021/05/04 02:08:34;;;;;;;13.98;3.42;;;1.50;99.90;;;;;;5060759;28;20224;-71
2021/05/04 02:11:01;;;;;;;12.70;2.95;;;1.60;99.90;;;;;;5066034;28;20200;-71
2021/05/04 02:13:27;;;;;;;7.28;2.95;;;1.50;99.90;;;;;;5075759;28;20211;-70
2021/05/04 02:15:53;;;;;;;11.25;2.92;;;1.50;99.90;;;;;;5063228;28;20564;-71
2021/05/04 02:18:19;;;;;;;14.40;3.30;;;1.50;99.90;;;;;;5055985;28;20245;-71
2021/05/04 02:20:45;;;;;;;13.90;3.33;;;1.50;99.90;;;;;;5070228;28;20196;-71
2021/05/04 02:23:11;;;;;;;12.15;2.67;;;1.60;99.90;;;;;;5076453;28;20731;-71
2021/05/04 02:25:36;;;;;;;6.95;3.13;;;1.60;99.90;;;;;;5076304;28;20261;-71
2021/05/04 02:28:03;;;;;;;13.80;3.83;;;1.60;99.90;;;;;;5076550;28;20227;-71
2021/05/04 02:30:34;;;;;;;8.88;3.10;;;1.60;99.90;;;;;;5075633;28;20196;-71
2021/05/04 02:33:00;;;;;;;7.30;3.08;;;1.60;99.90;;;;;;5056745;28;20207;-71
2021/05/04 02:35:26;;;;;;;8.23;2.88;;;1.60;99.90;;;;;;5077446;28;20283;-71
2021/05/04 02:37:51;;;;;;;9.10;2.40;;;1.60;99.90;;;;;;5078366;28;20291;-71
2021/05/04 02:40:17;;;;;;;10.93;3.08;;;1.50;99.90;;;;;;5076452;28;20215;-71
2021/05/04 02:42:43;;;;;;;10.35;2.63;;;1.50;99.90;;;;;;5076835;28;20195;-71
2021/05/04 02:45:10;;;;;;;7.20;2.53;;;1.50;99.90;;;;;;5076394;28;20744;-71
2021/05/04 02:47:35;;;;;;;5.63;2.90;;;1.40;99.90;;;;;;5075551;28;20197;-73
2021/05/04 02:50:01;;;;;;;28.52;7.07;;;1.30;99.90;;;;;;5057745;28;20202;-71
2021/05/04 02:52:27;;;;;;;7.57;2.58;;;1.30;99.90;;;;;;5073679;28;20192;-71
2021/05/04 02:54:52;;;;;;;7.55;2.40;;;1.30;99.90;;;;;;5055404;28;20203;-71
2021/05/04 02:57:19;;;;;;;10.05;4.25;;;1.20;99.90;;;;;;5079587;28;20265;-71
2021/05/04 02:59:45;;;;;;;6.72;2.42;;;1.20;99.90;;;;;;5080188;28;20208;-73
2021/05/04 03:02:10;;;;;;;16.42;2.75;;;1.20;99.90;;;;;;5079400;28;20224;-72
2021/05/04 03:04:36;;;;;;;12.10;2.40;;;1.10;99.90;;;;;;5074424;28;20203;-71
2021/05/04 03:07:02;;;;;;;8.90;2.28;;;1.10;99.90;;;;;;5078409;28;20187;-71
2021/05/04 03:09:28;;;;;;;5.40;2.53;;;1.20;99.90;;;;;;5060239;28;20196;-71
2021/05/04 03:11:54;;;;;;;9.10;2.28;;;1.20;99.90;;;;;;5061209;28;20288;-71
2021/05/04 03:14:19;;;;;;;7.45;2.78;;;1.20;99.90;;;;;;5074642;28;20243;-71
2021/05/04 03:16:45;;;;;;;9.55;2.88;;;1.30;99.90;;;;;;5078859;28;20204;-71
2021/05/04 03:19:11;;;;;;;12.18;2.90;;;1.40;99.90;;;;;;5077739;28;20789;-71
2021/05/04 03:21:36;;;;;;;9.00;2.22;;;1.40;99.90;;;;;;5082033;28;20198;-73
2021/05/04 03:24:02;;;;;;;6.93;2.85;;;1.50;99.90;;;;;;5077818;28;20526;-73
2021/05/04 03:26:28;;;;;;;8.27;2.55;;;1.60;99.90;;;;;;5080162;28;20246;-71
2021/05/04 03:28:54;;;;;;;5.35;2.03;;;1.70;99.90;;;;;;5075496;28;20285;-70
2021/05/04 03:31:19;;;;;;;8.93;2.72;;;1.80;99.90;;;;;;5081733;28;21134;-71
2021/05/04 03:33:45;;;;;;;5.55;2.15;;;1.90;99.90;;;;;;5077656;28;20222;-70
2021/05/04 03:36:11;;;;;;;7.13;3.05;;;2.00;99.90;;;;;;5075585;28;20205;-73
2021/05/04 03:38:37;;;;;;;6.50;2.42;;;2.10;99.90;;;;;;5057430;28;20198;-71
2021/05/04 03:41:02;;;;;;;5.68;2.58;;;2.20;99.90;;;;;;5079186;28;20219;-71
2021/05/04 03:43:28;;;;;;;10.45;2.65;;;2.30;99.90;;;;;;5061221;28;20296;-71
2021/05/04 03:45:54;;;;;;;14.38;3.03;;;2.40;99.90;;;;;;5080422;28;20207;-71
2021/05/04 03:48:20;;;;;;;6.28;2.60;;;2.50;99.90;;;;;;5082299;28;20661;-71
2021/05/04 03:50:47;;;;;;;6.22;2.53;;;2.60;99.90;;;;;;5078074;28;20673;-71
2021/05/04 03:53:13;;;;;;;5.57;2.50;;;2.60;99.90;;;;;;5061081;28;20210;-71
2021/05/04 03:55:39;;;;;;;8.27;2.65;;;2.70;99.90;;;;;;5079064;28;20200;-71
2021/05/04 03:58:05;;;;;;;5.13;2.28;;;2.80;99.90;;;;;;5079928;28;20655;-71
2021/05/04 04:00:30;;;;;;;8.20;2.50;;;2.90;99.90;;;;;;5064263;28;20204;-71
2021/05/04 04:02:56;;;;;;;5.03;2.15;;;3.00;99.90;;;;;;5079636;28;20235;-71
2021/05/04 04:05:22;;;;;;;7.95;2.55;;;3.10;99.90;;;;;;5081948;28;20610;-71
2021/05/04 04:07:47;;;;;;;4.82;2.35;;;3.10;99.90;;;;;;5080351;28;20298;-71
2021/05/04 04:10:13;;;;;;;6.20;2.90;;;3.20;99.90;;;;;;5079179;28;20204;-71
2021/05/04 04:12:40;;;;;;;11.10;2.67;;;3.30;99.90;;;;;;5080165;28;20188;-71
2021/05/04 04:15:08;;;;;;;9.15;2.95;;;3.30;99.90;;;;;;5063057;28;20204;-71
2021/05/04 04:17:33;;;;;;;5.72;2.35;;;3.40;99.90;;;;;;5086870;28;20200;-71
2021/05/04 04:19:59;;;;;;;6.32;2.50;;;3.40;99.90;;;;;;5082727;28;20650;-71
2021/05/04 04:22:25;;;;;;;11.93;2.50;;;3.50;99.90;;;;;;5085423;28;20290;-70
2021/05/04 04:24:54;;;;;;;6.07;2.60;;;3.50;99.90;;;;;;5065474;28;20319;-71
2021/05/04 04:27:23;;;;;;;6.05;2.20;;;3.50;99.90;;;;;;5079598;28;20705;-71
2021/05/04 04:29:49;;;;;;;6.18;2.63;;;3.60;99.90;;;;;;5082853;28;20263;-71
2021/05/04 04:32:15;;;;;;;14.27;2.83;;;3.60;99.90;;;;;;5070362;28;20283;-71
2021/05/04 04:34:41;;;;;;;6.47;2.53;;;3.70;99.90;;;;;;5070214;28;20625;-71
2021/05/04 04:37:07;;;;;;;15.00;2.70;;;3.70;99.90;;;;;;5071968;28;20195;-71
2021/05/04 04:39:32;;;;;;;11.02;2.40;;;3.80;99.90;;;;;;5067561;28;20663;-71
2021/05/04 04:41:58;;;;;;;6.47;2.55;;;3.80;99.90;;;;;;5082273;28;20192;-71
2021/05/04 04:44:27;;;;;;;9.80;2.42;;;3.80;99.90;;;;;;5087870;28;20233;-71
2021/05/04 04:46:52;;;;;;;3.13;2.22;;;3.80;99.90;;;;;;5087029;28;20674;-70
2021/05/04 04:49:19;;;;;;;9.75;2.50;;;3.90;99.90;;;;;;5053817;28;20253;-71
2021/05/04 04:51:46;;;;;;;4.00;2.58;;;3.90;99.90;;;;;;5025787;28;20227;-71
2021/05/04 04:54:12;;;;;;;10.60;2.55;;;3.90;99.90;;;;;;5050767;28;20196;-71
2021/05/04 04:56:38;;;;;;;7.90;2.35;;;4.00;99.90;;;;;;5077191;28;20207;-71
2021/05/04 04:59:05;;;;;;;4.80;2.22;;;4.00;99.90;;;;;;5083146;28;20241;-71
2021/05/04 05:01:32;;;;;;;4.68;2.30;;;4.10;99.90;;;;;;5084248;28;20196;-71
2021/05/04 05:03:58;;;;;;;5.10;1.95;;;4.10;99.90;;;;;;5046674;28;20228;-71
2021/05/04 05:06:24;;;;;;;7.45;2.47;;;4.20;99.90;;;;;;5084936;28;20611;-71
2021/05/04 05:08:50;;;;;;;7.00;2.33;;;4.30;99.90;;;;;;5060423;28;20223;-72
2021/05/04 05:11:17;;;;;;;3.22;2.20;;;4.30;99.90;;;;;;5068583;28;20192;-72
2021/05/04 05:13:44;;;;;;;9.35;2.60;;;4.40;99.90;;;;;;5066332;28;20201;-72
2021/05/04 05:16:10;;;;;;;6.90;2.20;;;4.50;99.90;;;;;;5055645;28;20910;-72
2021/05/04 05:18:35;;;;;;;5.03;2.60;;;4.60;99.90;;;;;;5085240;28;20199;-71
2021/05/04 05:21:01;;;;;;;5.88;2.55;;;4.70;99.90;;;;;;5090608;28;20283;-71
2021/05/04 05:23:27;;;;;;;4.88;2.28;;;4.80;99.90;;;;;;5084854;28;20221;-71
2021/05/04 05:25:53;;;;;;;4.30;2.22;;;4.90;99.90;;;;;;5086265;28;20239;-71
2021/05/04 05:28:19;;;;;;;5.53;2.47;;;4.90;99.90;;;;;;5070493;28;20188;-71
2021/05/04 05:30:45;;;;;;;7.57;2.55;;;5.00;99.90;;;;;;5085327;28;20211;-72
2021/05/04 05:33:10;;;;;;;8.77;2.42;;;5.00;99.90;;;;;;5076576;28;20704;-72
2021/05/04 05:35:36;;;;;;;5.93;2.17;;;5.20;99.90;;;;;;5052932;28;20299;-71
2021/05/04 05:38:04;;;;;;;6.63;2.50;;;5.20;99.90;;;;;;5081780;28;20645;-71
2021/05/04 05:40:33;;;;;;;8.73;1.95;;;5.30;99.90;;;;;;5074028;28;20671;-72
2021/05/04 05:42:59;;;;;;;9.90;1.88;;;5.50;99.90;;;;;;5060847;28;20209;-72
2021/05/04 05:45:25;;;;;;;5.60;1.77;;;5.60;99.90;;;;;;5088999;28;20201;-71
2021/05/04 05:47:50;;;;;;;3.13;1.60;;;5.70;99.90;;;;;;5072043;28;20397;-71
2021/05/04 05:50:18;;;;;;;4.07;1.95;;;5.90;99.90;;;;;;5083306;28;20192;-72
2021/05/04 05:52:43;;;;;;;5.68;1.98;;;6.00;99.90;;;;;;5088104;28;20200;-71
2021/05/04 05:55:10;;;;;;;4.78;2.03;;;6.00;99.90;;;;;;5081194;28;20201;-71
2021/05/04 05:57:35;;;;;;;6.65;2.08;;;6.10;99.90;;;;;;5064903;28;20199;-71
2021/05/04 06:00:03;;;;;;;4.22;1.80;;;6.30;99.90;;;;;;5075165;28;20196;-71
2021/05/04 06:02:28;;;;;;;5.57;1.65;;;6.60;99.90;;;;;;5066252;28;20581;-71
2021/05/04 06:04:54;;;;;;;4.30;1.75;;;6.80;99.90;;;;;;5068080;28;20207;-71
2021/05/04 06:07:20;;;;;;;8.23;1.60;;;7.00;99.90;;;;;;5089072;28;20192;-72
2021/05/04 06:09:45;;;;;;;9.82;1.90;;;7.10;99.90;;;;;;5084584;28;20274;-72
2021/05/04 06:12:11;;;;;;;7.72;2.03;;;7.40;99.90;;;;;;5086448;28;20240;-72
2021/05/04 06:14:36;;;;;;;5.28;1.88;;;7.40;99.90;;;;;;5084973;28;20196;-71
2021/05/04 06:17:02;;;;;;;4.32;2.17;;;7.50;99.90;;;;;;5082360;28;20204;-71
2021/05/04 06:19:28;;;;;;;7.45;1.52;;;7.40;99.90;;;;;;5067684;28;20187;-71
2021/05/04 06:21:53;;;;;;;5.30;1.45;;;7.40;99.90;;;;;;5084301;28;20714;-71
2021/05/04 06:24:19;;;;;;;4.97;1.55;;;7.40;99.90;;;;;;5081642;28;20196;-72
2021/05/04 06:26:45;;;;;;;3.33;1.65;;;7.50;99.90;;;;;;5085800;28;20700;-72
2021/05/04 06:29:10;;;;;;;6.65;1.58;;;7.40;99.90;;;;;;5087389;28;20203;-72
2021/05/04 06:31:36;;;;;;;5.38;1.60;;;7.30;99.90;;;;;;5079541;28;20195;-72
2021/05/04 06:34:04;;;;;;;3.13;1.40;;;7.40;99.90;;;;;;5078040;28;20200;-71
2021/05/04 06:36:30;;;;;;;1.90;1.50;;;7.50;99.90;;;;;;5074519;28;20278;-71
2021/05/04 06:38:56;;;;;;;4.03;1.48;;;7.70;99.90;;;;;;5063786;28;20549;-72
2021/05/04 06:41:22;;;;;;;3.45;1.40;;;7.80;99.90;;;;;;5066902;28;20207;-72
2021/05/04 06:43:47;;;;;;;10.52;1.45;;;7.70;99.90;;;;;;5062121;28;20252;-72
2021/05/04 06:46:13;;;;;;;4.10;1.42;;;7.60;99.90;;;;;;5085573;28;20212;-71
2021/05/04 06:48:39;;;;;;;3.65;1.58;;;7.70;99.90;;;;;;5083075;28;20573;-71
2021/05/04 06:51:05;;;;;;;2.63;1.30;;;7.60;99.90;;;;;;5069473;28;20657;-71
2021/05/04 06:53:30;;;;;;;3.15;1.30;;;7.50;99.90;;;;;;5047206;28;20625;-71
2021/05/04 06:55:56;;;;;;;7.35;1.45;;;7.50;99.90;;;;;;5077831;28;20223;-72
2021/05/04 06:58:22;;;;;;;4.72;1.70;;;7.50;99.90;;;;;;5065820;28;20221;-71
2021/05/04 07:00:47;;;;;;;4.13;1.55;;;7.50;99.90;;;;;;5075024;28;20682;-71
2021/05/04 07:03:13;;;;;;;8.73;1.40;;;7.30;99.90;;;;;;5075963;28;20686;-71
2021/05/04 07:05:39;;;;;;;5.85;1.20;;;7.30;99.90;;;;;;5077262;28;20617;-72
2021/05/04 07:08:05;;;;;;;7.15;1.20;;;7.30;99.90;;;;;;5075252;28;20590;-71
2021/05/04 07:10:30;;;;;;;3.38;1.40;;;7.20;99.90;;;;;;5075107;28;20188;-71
2021/05/04 07:12:58;;;;;;;7.43;1.48;;;7.20;99.90;;;;;;5046680;28;20192;-72
2021/05/04 07:15:25;;;;;;;2.75;1.20;;;7.30;99.90;;;;;;5072694;28;20204;-72
2021/05/04 07:17:50;;;;;;;4.88;1.30;;;7.30;99.90;;;;;;5079231;28;20204;-72
2021/05/04 07:20:19;;;;;;;2.42;1.30;;;7.40;99.90;;;;;;5085767;28;20199;-74
2021/05/04 07:22:46;;;;;;;7.07;1.40;;;7.50;99.90;;;;;;5085418;28;20200;-71
2021/05/04 07:25:12;;;;;;;1.90;1.15;;;7.60;99.90;;;;;;5082460;28;20718;-72
2021/05/04 07:27:38;;;;;;;5.93;1.08;;;7.70;99.90;;;;;;5077249;28;20275;-72
2021/05/04 07:30:04;;;;;;;3.65;1.30;;;7.80;99.90;;;;;;5075408;28;20196;-72
2021/05/04 07:32:30;;;;;;;1.83;1.20;;;7.80;99.90;;;;;;5087837;28;20270;-71
2021/05/04 07:34:56;;;;;;;4.50;1.10;;;7.80;99.90;;;;;;5086320;28;20224;-72
2021/05/04 07:37:21;;;;;;;2.42;1.00;;;7.80;99.90;;;;;;5062478;28;20199;-71
2021/05/04 07:39:47;;;;;;;3.05;1.15;;;7.90;99.90;;;;;;5079907;28;20258;-71
2021/05/04 07:42:13;;;;;;;4.28;1.17;;;7.70;99.90;;;;;;5085279;28;20196;-71
2021/05/04 07:44:39;;;;;;;2.60;1.10;;;7.80;99.90;;;;;;5084566;28;20196;-71
2021/05/04 07:47:05;;;;;;;3.35;1.10;;;8.00;99.90;;;;;;5080551;28;20191;-72
2021/05/04 07:49:35;;;;;;;2.30;0.95;;;7.80;99.90;;;;;;5067003;28;20742;-71
2021/05/04 07:52:01;;;;;;;2.05;1.10;;;7.80;99.90;;;;;;5065628;28;20194;-72
2021/05/04 07:54:27;;;;;;;6.20;1.80;;;7.80;99.90;;;;;;5083883;28;20226;-72
2021/05/04 07:56:53;;;;;;;2.35;1.00;;;7.80;99.90;;;;;;5084754;28;20207;-71
2021/05/04 07:59:19;;;;;;;6.00;1.15;;;7.90;99.90;;;;;;5079089;28;20203;-72
2021/05/04 08:01:44;;;;;;;1.42;0.90;;;7.90;99.90;;;;;;5086667;28;20199;-72
2021/05/04 08:04:11;;;;;;;3.13;1.10;;;8.00;99.90;;;;;;5060883;28;20199;-71
2021/05/04 08:06:37;;;;;;;4.78;1.05;;;8.10;99.90;;;;;;5087772;28;20199;-71
2021/05/04 08:09:03;;;;;;;1.20;1.00;;;8.20;99.90;;;;;;5083168;28;20197;-72
2021/05/04 08:11:29;;;;;;;8.38;1.23;;;8.20;99.90;;;;;;5082746;28;20192;-71
2021/05/04 08:13:55;;;;;;;2.08;1.10;;;8.30;99.90;;;;;;5083104;28;20231;-71
2021/05/04 08:16:21;;;;;;;1.58;1.15;;;8.20;99.90;;;;;;5080551;28;20287;-71
2021/05/04 08:18:49;;;;;;;1.63;1.10;;;8.30;99.90;;;;;;5081466;28;20277;-72
2021/05/04 08:21:17;;;;;;;6.88;1.30;;;8.40;99.90;;;;;;5083287;28;20193;-73
2021/05/04 08:23:45;;;;;;;4.35;1.75;;;8.30;99.90;;;;;;5082646;28;20196;-71
2021/05/04 08:26:10;;;;;;;2.83;1.20;;;8.20;99.90;;;;;;5076893;28;20200;-71
2021/05/04 08:28:36;;;;;;;6.50;1.17;;;8.10;99.90;;;;;;5080253;28;20207;-72
2021/05/04 08:31:02;;;;;;;4.60;1.27;;;8.20;99.90;;;;;;5081697;28;20194;-72
2021/05/04 08:33:27;;;;;;;4.97;1.30;;;8.40;99.90;;;;;;5069627;28;20603;-72
2021/05/04 08:35:53;;;;;;;3.67;1.08;;;8.60;99.90;;;;;;5063230;28;20203;-72
2021/05/04 08:38:21;;;;;;;1.67;1.15;;;8.40;99.90;;;;;;5063023;28;20236;-71
2021/05/04 08:40:47;;;;;;;8.50;1.63;;;8.40;99.90;;;;;;5083834;28;20200;-71
2021/05/04 08:43:12;;;;;;;1.77;1.17;;;8.50;99.90;;;;;;5082595;28;20248;-71
2021/05/04 08:45:42;;;;;;;2.08;1.20;;;8.60;99.90;;;;;;5084834;28;20206;-71
2021/05/04 08:48:08;;;;;;;3.10;1.30;;;8.60;99.90;;;;;;5079278;28;20196;-72
2021/05/04 08:50:36;;;;;;;4.78;1.50;;;8.60;99.90;;;;;;5079893;28;20594;-71
2021/05/04 08:53:02;;;;;;;3.45;1.33;;;8.60;99.90;;;;;;5086915;28;20184;-72
2021/05/04 08:55:28;;;;;;;2.47;1.15;;;8.70;99.90;;;;;;5077952;28;20267;-72
2021/05/04 08:57:54;;;;;;;2.17;1.20;;;8.90;99.90;;;;;;5074205;28;20223;-72
2021/05/04 09:00:20;;;;;;;2.53;1.23;;;9.10;99.90;;;;;;5064465;28;20553;-72
2021/05/04 09:02:55;;;;;;;3.95;1.50;;;9.10;99.90;;;;;;5079769;28;20598;-71
2021/05/04 09:05:22;;;;;;;3.00;1.30;;;9.20;99.90;;;;;;5082787;28;20195;-72
2021/05/04 09:07:48;;;;;;;4.20;1.05;;;9.30;99.90;;;;;;5063573;28;20405;-72
2021/05/04 09:13:29;;;;;;;7.20;1.10;;;8.90;99.90;;;;;;5061236;28;20215;-72
2021/05/04 09:21:09;;;;;;;1.10;0.90;;;8.80;99.90;;;;;;5078652;28;20252;-72
2021/05/04 09:23:41;;;;;;;2.85;1.27;;;9.00;99.90;;;;;;5077496;28;20191;-71
2021/05/04 09:26:19;;;;;;;7.55;1.10;;;9.20;99.90;;;;;;5061166;28;20794;-72
2021/05/04 09:28:50;;;;;;;2.80;0.90;;;9.50;99.90;;;;;;5066127;28;20204;-72
2021/05/04 09:31:36;;;;;;;1.55;1.00;;;9.70;99.90;;;;;;5084414;28;20673;-73
2021/05/04 09:34:10;;;;;;;1.50;0.90;;;9.80;99.90;;;;;;5054486;28;20671;-71
2021/05/04 09:36:43;;;;;;;1.73;1.20;;;9.60;99.90;;;;;;5084139;28;20240;-71
2021/05/04 09:39:11;;;;;;;1.17;0.90;;;9.50;99.90;;;;;;5078301;28;20200;-71
2021/05/04 09:41:37;;;;;;;5.50;1.20;;;9.30;99.90;;;;;;5077629;28;20873;-71
2021/05/04 09:44:04;;;;;;;3.28;1.13;;;9.50;99.90;;;;;;5064184;28;20188;-71
2021/05/04 09:46:46;;;;;;;1.80;1.02;;;9.40;99.90;;;;;;5077515;28;20661;-71
2021/05/04 09:49:35;;;;;;;1.40;0.90;;;9.50;99.90;;;;;;5077777;28;20684;-73
2021/05/04 09:52:20;;;;;;;6.10;2.22;;;9.20;99.90;;;;;;5081477;28;20662;-74
2021/05/04 09:54:46;;;;;;;2.53;1.15;;;9.20;99.90;;;;;;5080351;28;20858;-71
2021/05/04 09:57:38;;;;;;;1.70;1.00;;;9.20;99.90;;;;;;5077472;28;20611;-74
2021/05/04 10:00:26;;;;;;;5.97;0.98;;;9.00;99.90;;;;;;5076061;28;20214;-74
2021/05/04 10:02:52;;;;;;;2.00;1.52;;;8.90;99.90;;;;;;5066983;28;20264;-71
2021/05/04 10:05:19;;;;;;;6.50;1.23;;;8.90;99.90;;;;;;5076238;28;20716;-71
2021/05/04 10:07:46;;;;;;;4.40;1.23;;;9.10;99.90;;;;;;5075463;28;20791;-71
2021/05/04 10:10:14;;;;;;;2.95;1.10;;;9.10;99.90;;;;;;5055273;28;20196;-71
2021/05/04 10:12:42;;;;;;;2.95;1.15;;;9.20;99.90;;;;;;5080095;28;20204;-71
2021/05/04 10:15:10;;;;;;;3.72;1.05;;;9.20;99.90;;;;;;5081326;28;20191;-70
2021/05/04 10:17:37;;;;;;;3.13;1.27;;;9.00;99.90;;;;;;5077920;28;20208;-73
2021/05/04 10:20:15;;;;;;;4.53;1.30;;;8.90;99.90;;;;;;5081897;28;20240;-71
2021/05/04 10:22:42;;;;;;;2.83;1.15;;;9.10;99.90;;;;;;5076681;28;20193;-71
2021/05/04 10:25:14;;;;;;;2.60;1.20;;;9.20;99.90;;;;;;5062584;28;20256;-71
2021/05/04 10:27:41;;;;;;;1.60;1.00;;;9.10;99.90;;;;;;5077747;28;20253;-70
2021/05/04 10:30:12;;;;;;;1.27;1.02;;;9.10;99.90;;;;;;5060671;28;20313;-71
2021/05/04 10:33:01;;;;;;;3.45;1.20;;;9.00;99.90;;;;;;5074957;28;20199;-72
2021/05/04 10:35:32;;;;;;;1.67;1.10;;;9.10;99.90;;;;;;5081421;28;20200;-72
2021/05/04 10:38:06;;;;;;;1.20;0.93;;;9.20;99.90;;;;;;5077506;28;20532;-71
2021/05/04 10:40:34;;;;;;;2.13;1.10;;;9.40;99.90;;;;;;5080599;28;20568;-72
2021/05/04 10:43:21;;;;;;;2.25;1.15;;;9.40;99.90;;;;;;5075602;28;20197;-72
2021/05/04 10:45:49;;;;;;;3.72;0.98;;;9.40;99.90;;;;;;5080215;28;20304;-72
2021/05/04 10:48:15;;;;;;;1.00;0.90;;;9.30;99.90;;;;;;5083657;28;20199;-72
2021/05/04 10:50:53;;;;;;;1.45;1.00;;;9.40;99.90;;;;;;5078036;28;20188;-72
2021/05/04 10:53:20;;;;;;;3.17;1.25;;;9.20;99.90;;;;;;5074471;28;20249;-72
2021/05/04 10:55:56;;;;;;;1.35;1.00;;;9.20;99.90;;;;;;5080022;28;20211;-72
2021/05/04 10:58:24;;;;;;;2.28;1.13;;;9.00;99.90;;;;;;5083013;28;20705;-72
2021/05/04 11:00:52;;;;;;;4.53;1.17;;;9.00;99.90;;;;;;5069620;28;20246;-72
2021/05/04 11:03:31;;;;;;;9.40;1.20;;;9.10;99.90;;;;;;5076708;28;20279;-72
2021/05/04 11:06:01;;;;;;;1.95;1.20;;;9.20;99.90;;;;;;5074756;28;20211;-72
2021/05/04 11:08:50;;;;;;;4.10;1.23;;;9.20;99.90;;;;;;5058189;28;20188;-72
2021/05/04 11:11:43;;;;;;;2.22;0.93;;;9.20;99.90;;;;;;5059765;28;20204;-72
2021/05/04 11:14:20;;;;;;;1.20;0.90;;;9.00;99.90;;;;;;5067425;28;20253;-72
2021/05/04 11:16:56;;;;;;;2.63;1.17;;;8.70;99.90;;;;;;5076075;28;20203;-72
2021/05/04 11:19:31;;;;;;;2.80;1.10;;;8.60;99.90;;;;;;5052991;28;20199;-72
2021/05/04 11:22:07;;;;;;;1.08;0.98;;;8.50;99.90;;;;;;5073630;28;20208;-72
2021/05/04 11:24:34;;;;;;;2.85;1.10;;;8.60;99.90;;;;;;5075171;28;20297;-72
2021/05/04 11:27:16;;;;;;;1.95;1.20;;;8.90;99.90;;;;;;5072161;28;20988;-72
2021/05/04 11:29:44;;;;;;;3.08;1.10;;;9.10;99.90;;;;;;5074248;28;20283;-72
2021/05/04 11:32:34;;;;;;;2.85;0.90;;;9.20;99.90;;;;;;5056886;28;20203;-72
2021/05/04 11:35:02;;;;;;;1.98;1.00;;;9.30;99.90;;;;;;5076246;28;20192;-72
2021/05/04 11:37:30;;;;;;;1.50;0.90;;;9.60;99.90;;;;;;5057528;28;20192;-72
2021/05/04 11:39:57;;;;;;;2.53;1.10;;;9.50;99.90;;;;;;5057685;28;20188;-72
2021/05/04 11:42:26;;;;;;;0.90;0.75;;;9.40;99.90;;;;;;5078090;28;20775;-72
2021/05/04 11:44:52;;;;;;;2.13;1.00;;;9.30;99.90;;;;;;5067975;28;20200;-72
2021/05/04 11:47:26;;;;;;;1.25;1.00;;;9.40;99.90;;;;;;5079181;28;20931;-72
2021/05/04 11:50:05;;;;;;;9.32;1.00;;;9.50;99.90;;;;;;5079615;28;20196;-72
2021/05/04 11:52:31;;;;;;;2.95;0.98;;;9.60;99.90;;;;;;5079764;28;20202;-72
2021/05/04 11:55:04;;;;;;;1.75;1.00;;;9.70;99.90;;;;;;5056192;28;20201;-72
2021/05/04 11:57:29;;;;;;;1.10;0.80;;;10.00;99.90;;;;;;5079625;28;20263;-72
2021/05/04 11:59:55;;;;;;;1.98;0.80;;;10.00;98.80;;;;;;5074489;28;20196;-72
2021/05/04 12:02:31;;;;;;;4.80;1.05;;;9.80;99.90;;;;;;5053187;28;20686;-72
2021/05/04 12:04:58;;;;;;;1.35;0.90;;;9.50;99.20;;;;;;5051517;28;20212;-72
2021/05/04 12:07:46;;;;;;;2.40;1.05;;;9.30;99.70;;;;;;5055580;28;20231;-71
2021/05/04 12:10:25;;;;;;;2.35;1.40;;;9.30;99.90;;;;;;5052044;28;20189;-72
2021/05/04 12:12:56;;;;;;;1.70;0.90;;;9.20;99.80;;;;;;5034474;28;20699;-72
2021/05/04 12:15:27;;;;;;;2.63;0.90;;;9.10;99.90;;;;;;5058418;28;20236;-72
2021/05/04 12:18:21;;;;;;;1.77;1.20;;;8.80;99.80;;;;;;5059175;28;20301;-72
2021/05/04 12:20:56;;;;;;;15.27;6.93;;;8.70;99.90;;;;;;5060536;28;20529;-73
2021/05/04 12:23:28;;;;;;;4.50;1.35;;;8.60;99.90;;;;;;5042386;28;20196;-71
2021/05/04 12:26:18;;;;;;;2.28;1.20;;;8.40;99.90;;;;;;5061882;28;20677;-72
2021/05/04 12:28:54;;;;;;;2.15;1.38;;;8.10;99.90;;;;;;5034442;28;20217;-72
2021/05/04 12:31:31;;;;;;;2.03;1.10;;;8.00;99.90;;;;;;5065057;28;20228;-72
2021/05/04 12:33:57;;;;;;;3.97;1.00;;;8.20;99.90;;;;;;5061852;28;20208;-72
2021/05/04 12:36:45;;;;;;;2.70;1.00;;;8.10;99.90;;;;;;5061294;28;20205;-73
2021/05/04 12:39:27;;;;;;;2.15;1.20;;;8.10;99.90;;;;;;5046576;28;20203;-72
2021/05/04 12:41:54;;;;;;;5.30;1.42;;;8.00;99.90;;;;;;5055868;28;20247;-72
2021/05/04 12:44:26;;;;;;;2.85;1.38;;;8.10;99.90;;;;;;5045478;28;20792;-72
2021/05/04 12:47:11;;;;;;;2.78;1.30;;;8.30;99.90;;;;;;5044422;28;20243;-73
2021/05/04 12:49:38;;;;;;;2.35;1.20;;;8.40;99.90;;;;;;5062246;28;21418;-72
2021/05/04 12:52:08;;;;;;;4.60;1.10;;;8.70;99.90;;;;;;5062811;28;20228;-72
2021/05/04 12:54:38;;;;;;;3.53;1.15;;;9.00;99.90;;;;;;5044778;28;20200;-73
2021/05/04 12:57:22;;;;;;;2.95;1.15;;;9.40;99.90;;;;;;5043583;28;20662;-72
2021/05/04 12:59:48;;;;;;;2.70;1.10;;;9.60;99.90;;;;;;5066784;28;20205;-72
2021/05/04 13:02:25;;;;;;;4.00;1.25;;;10.00;99.90;;;;;;5048040;28;20763;-73
2021/05/04 13:07:35;;;;;;;3.10;1.27;;;10.40;99.90;;;;;;5083706;28;20200;-74
2021/05/04 13:10:16;;;;;;;1.92;1.00;;;10.30;99.90;;;;;;5082383;28;20196;-72
2021/05/04 13:18:25;;;;;;;2.33;1.10;;;10.00;99.90;;;;;;5083639;28;20272;-73